createdAt,value
2017-04-28T00:00:42.529Z,99.10
2017-04-28T00:03:10.915Z,99.70
2017-04-28T00:05:39.307Z,99.90
2017-04-28T00:08:07.753Z,99.90
2017-04-28T00:10:35.704Z,99.40
2017-04-28T00:13:04.017Z,99.80
2017-04-28T00:15:33.894Z,99.90
2017-04-28T00:18:01.453Z,99.90
2017-04-28T00:20:29.765Z,99.80
2017-04-28T00:22:57.309Z,99.80
2017-04-28T00:25:25.288Z,99.80
2017-04-28T00:27:53.220Z,99.70
2017-04-28T00:30:20.768Z,99.70
2017-04-28T00:32:48.741Z,99.70
2017-04-28T00:35:16.680Z,99.90
2017-04-28T00:37:44.628Z,99.90
2017-04-28T00:40:12.597Z,99.90
2017-04-28T00:42:40.544Z,99.90
2017-04-28T00:45:08.861Z,99.10
2017-04-28T00:47:36.828Z,99.40
2017-04-28T00:50:04.817Z,98.80
2017-04-28T00:52:32.373Z,98.80
2017-04-28T00:55:00.355Z,98.80
2017-04-28T00:57:28.299Z,98.10
2017-04-28T00:59:56.236Z,98.70
2017-04-28T01:02:24.576Z,98.40
2017-04-28T01:04:52.516Z,98.30
2017-04-28T01:07:20.452Z,98.90
2017-04-28T01:09:48.788Z,99.40
2017-04-28T01:12:16.732Z,99.70
2017-04-28T01:14:44.668Z,99.90
2017-04-28T01:17:13.000Z,99.90
2017-04-28T01:19:40.944Z,99.90
2017-04-28T01:22:08.889Z,99.90
2017-04-28T01:24:37.225Z,99.90
2017-04-28T01:27:05.181Z,99.70
2017-04-28T01:29:33.115Z,99.90
2017-04-28T01:32:00.686Z,99.90
2017-04-28T01:34:28.656Z,99.70
2017-04-28T01:36:56.592Z,99.90
2017-04-28T01:39:24.563Z,99.90
2017-04-28T01:41:52.511Z,99.80
2017-04-28T01:44:20.448Z,99.90
2017-04-28T01:46:48.413Z,99.90
2017-04-28T01:49:16.372Z,99.90
2017-04-28T01:51:44.672Z,99.90
2017-04-28T01:54:12.243Z,99.90
2017-04-28T01:56:40.184Z,99.90
2017-04-28T01:59:08.497Z,99.80
2017-04-28T02:01:36.457Z,99.50
2017-04-28T02:04:04.432Z,99.40
2017-04-28T02:06:32.376Z,98.80
2017-04-28T02:09:00.335Z,98.90
2017-04-28T02:11:28.655Z,98.60
2017-04-28T02:13:56.599Z,99.90
2017-04-28T02:16:24.564Z,99.90
2017-04-28T02:18:52.511Z,99.90
2017-04-28T02:21:20.820Z,99.70
2017-04-28T02:23:48.396Z,99.70
2017-04-28T02:26:16.336Z,99.90
2017-04-28T02:28:44.653Z,99.90
2017-04-28T02:31:12.620Z,99.90
2017-04-28T02:33:40.568Z,99.90
2017-04-28T02:36:08.515Z,99.90
2017-04-28T02:38:36.853Z,99.90
2017-04-28T02:41:04.796Z,99.90
2017-04-28T02:43:32.352Z,99.90
2017-04-28T02:45:59.932Z,99.90
2017-04-28T02:48:27.879Z,99.70
2017-04-28T02:50:55.825Z,98.90
2017-04-28T02:53:24.535Z,98.50
2017-04-28T02:55:52.480Z,99.20
2017-04-28T02:58:20.796Z,98.50
2017-04-28T03:00:48.765Z,97.20
2017-04-28T03:03:16.315Z,97.10
2017-04-28T03:05:44.256Z,96.90
2017-04-28T03:08:12.233Z,97.10
2017-04-28T03:10:40.554Z,98.60
2017-04-28T03:13:08.489Z,95.60
2017-04-28T03:15:36.825Z,95.00
2017-04-28T03:18:04.770Z,94.50
2017-04-28T03:20:32.713Z,97.20
2017-04-28T03:23:01.053Z,96.80
2017-04-28T03:25:28.992Z,97.90
2017-04-28T03:27:56.937Z,97.80
2017-04-28T03:30:24.906Z,97.20
2017-04-28T03:32:52.466Z,97.20
2017-04-28T03:35:20.782Z,99.30
2017-04-28T03:37:48.345Z,99.30
2017-04-28T03:40:16.288Z,98.10
2017-04-28T03:42:44.230Z,98.70
2017-04-28T03:45:12.561Z,98.40
2017-04-28T03:47:40.528Z,98.20
2017-04-28T03:50:08.468Z,99.60
2017-04-28T03:52:36.437Z,99.50
2017-04-28T03:55:04.376Z,99.60
2017-04-28T03:57:32.324Z,99.70
2017-04-28T04:00:00.354Z,99.90
2017-04-28T04:02:27.899Z,99.90
2017-04-28T04:04:55.444Z,99.80
2017-04-28T04:07:23.413Z,99.90
2017-04-28T04:09:51.368Z,99.90
2017-04-28T04:12:19.308Z,99.90
2017-04-28T04:14:47.272Z,99.90
2017-04-28T04:17:14.820Z,99.90
2017-04-28T04:19:42.765Z,99.90
2017-04-28T04:22:10.736Z,99.90
2017-04-28T04:24:39.053Z,99.90
2017-04-28T04:27:06.988Z,99.90
2017-04-28T04:29:34.977Z,99.90
2017-04-28T04:32:02.516Z,99.90
2017-04-28T04:34:30.827Z,99.90
2017-04-28T04:36:58.803Z,99.90
2017-04-28T04:39:26.749Z,99.90
2017-04-28T04:41:54.687Z,99.90
2017-04-28T04:44:22.656Z,99.90
2017-04-28T04:46:50.637Z,99.90
2017-04-28T04:49:18.581Z,99.90
2017-04-28T04:51:46.556Z,99.90
2017-04-28T04:54:14.495Z,99.90
2017-04-28T04:56:42.441Z,99.90
2017-04-28T04:59:10.409Z,99.70
2017-04-28T05:01:38.744Z,99.60
2017-04-28T05:04:06.708Z,99.40
2017-04-28T05:06:34.653Z,99.90
2017-04-28T05:09:02.224Z,99.80
2017-04-28T05:11:30.172Z,99.80
2017-04-28T05:13:58.111Z,99.90
2017-04-28T05:16:26.074Z,99.90
2017-04-28T05:18:54.020Z,99.60
2017-04-28T05:21:21.963Z,99.70
2017-04-28T05:23:49.929Z,99.80
2017-04-28T05:26:17.872Z,99.50
2017-04-28T05:28:45.816Z,99.30
2017-04-28T05:31:13.779Z,97.40
2017-04-28T05:33:41.720Z,97.00
2017-04-28T05:36:09.664Z,97.40
2017-04-28T05:38:37.640Z,98.10
2017-04-28T05:41:05.617Z,99.00
2017-04-28T05:43:33.552Z,96.40
2017-04-28T05:46:01.894Z,97.00
2017-04-28T05:48:29.836Z,98.20
2017-04-28T05:50:57.788Z,93.20
2017-04-28T05:53:25.429Z,93.20
2017-04-28T05:55:52.963Z,93.60
2017-04-28T05:58:20.904Z,93.70
2017-04-28T06:00:48.859Z,97.20
2017-04-28T06:03:16.796Z,96.90
2017-04-28T06:05:44.737Z,96.70
2017-04-28T06:08:12.712Z,92.70
2017-04-28T06:10:40.659Z,94.30
2017-04-28T06:13:08.587Z,91.80
2017-04-28T06:15:36.156Z,91.70
2017-04-28T06:18:04.467Z,94.20
2017-04-28T06:20:32.400Z,90.00
2017-04-28T06:23:00.740Z,94.30
2017-04-28T06:25:28.699Z,91.20
2017-04-28T06:27:56.635Z,92.50
2017-04-28T06:30:24.604Z,90.50
2017-04-28T06:32:52.544Z,91.90
2017-04-28T06:35:20.493Z,88.60
2017-04-28T06:37:48.464Z,90.50
2017-04-28T06:40:16.400Z,89.90
2017-04-28T06:42:44.349Z,88.10
2017-04-28T06:45:12.675Z,87.90
2017-04-28T06:47:40.616Z,89.40
2017-04-28T06:50:08.556Z,85.70
2017-04-28T06:52:36.523Z,86.70
2017-04-28T06:55:04.827Z,87.10
2017-04-28T06:57:32.767Z,86.90
2017-04-28T07:00:01.100Z,85.50
2017-04-28T07:02:29.036Z,86.70
2017-04-28T07:04:56.977Z,87.80
2017-04-28T07:07:25.675Z,87.70
2017-04-28T07:09:54.333Z,86.40
2017-04-28T07:12:22.268Z,86.90
2017-04-28T07:14:50.223Z,84.30
2017-04-28T07:17:18.161Z,82.90
2017-04-28T07:19:46.104Z,83.40
2017-04-28T07:22:14.068Z,85.10
2017-04-28T07:24:42.004Z,87.80
2017-04-28T07:27:09.936Z,83.70
2017-04-28T07:29:37.892Z,85.00
2017-04-28T07:32:05.828Z,86.30
2017-04-28T07:34:33.760Z,85.30
2017-04-28T07:37:02.103Z,80.80
2017-04-28T07:39:30.036Z,81.80
2017-04-28T07:41:57.971Z,81.80
2017-04-28T07:44:25.923Z,82.40
2017-04-28T07:46:53.859Z,81.50
2017-04-28T07:49:21.788Z,81.10
2017-04-28T07:51:50.548Z,82.00
2017-04-28T07:54:18.501Z,82.70
2017-04-28T07:56:46.440Z,82.50
2017-04-28T07:59:14.405Z,83.70
2017-04-28T08:01:42.345Z,82.20
2017-04-28T08:04:10.285Z,82.60
2017-04-28T08:06:38.239Z,80.50
2017-04-28T08:09:06.172Z,81.40
2017-04-28T08:11:34.485Z,80.10
2017-04-28T08:14:02.445Z,79.90
2017-04-28T08:16:30.370Z,79.40
2017-04-28T08:18:58.304Z,82.30
2017-04-28T08:21:25.863Z,82.30
2017-04-28T08:23:53.791Z,75.90
2017-04-28T08:26:22.105Z,78.00
2017-04-28T08:28:50.060Z,76.30
2017-04-28T08:31:17.987Z,77.70
2017-04-28T08:33:45.915Z,76.60
2017-04-28T08:36:13.868Z,74.60
2017-04-28T08:38:41.803Z,77.30
2017-04-28T08:41:09.336Z,77.40
2017-04-28T08:43:37.311Z,75.80
2017-04-28T08:46:05.247Z,72.40
2017-04-28T08:48:33.180Z,81.00
2017-04-28T08:51:00.750Z,81.10
2017-04-28T08:53:29.057Z,75.70
2017-04-28T08:55:56.983Z,74.40
2017-04-28T08:58:24.940Z,74.60
2017-04-28T09:00:52.480Z,74.60
2017-04-28T09:03:20.412Z,73.10
2017-04-28T09:05:47.980Z,73.00
2017-04-28T09:08:15.912Z,71.30
2017-04-28T09:10:43.851Z,70.20
2017-04-28T09:13:11.820Z,70.00
2017-04-28T09:15:39.796Z,72.70
2017-04-28T09:18:07.779Z,73.70
2017-04-28T09:20:35.731Z,68.40
2017-04-28T09:23:03.668Z,71.80
2017-04-28T09:25:31.603Z,70.80
2017-04-28T09:27:59.164Z,70.90
2017-04-28T09:30:27.099Z,69.60
2017-04-28T09:32:55.040Z,67.90
2017-04-28T09:35:22.608Z,67.90
2017-04-28T09:37:50.549Z,68.60
2017-04-28T09:40:18.856Z,62.50
2017-04-28T09:42:46.415Z,62.50
2017-04-28T09:45:14.356Z,69.60
2017-04-28T09:47:42.669Z,65.30
2017-04-28T09:50:10.631Z,67.80
2017-04-28T09:52:38.567Z,67.10
2017-04-28T09:55:06.876Z,67.90
2017-04-28T09:57:34.451Z,67.80
2017-04-28T10:00:01.996Z,66.40
2017-04-28T10:02:29.932Z,60.30
2017-04-28T10:04:57.892Z,61.70
2017-04-28T10:07:25.827Z,65.90
2017-04-28T10:09:53.765Z,69.50
2017-04-28T10:12:22.103Z,66.40
2017-04-28T10:14:50.044Z,63.90
2017-04-28T10:17:17.984Z,64.10
2017-04-28T10:19:45.944Z,64.40
2017-04-28T10:22:14.260Z,63.50
2017-04-28T10:24:42.188Z,62.90
2017-04-28T10:27:10.516Z,63.20
2017-04-28T10:29:38.057Z,63.20
2017-04-28T10:32:05.596Z,63.90
2017-04-28T10:34:33.934Z,62.30
2017-04-28T10:37:01.872Z,65.00
2017-04-28T10:39:29.804Z,63.10
2017-04-28T10:41:58.131Z,57.40
2017-04-28T10:44:26.072Z,58.10
2017-04-28T10:46:54.009Z,56.40
2017-04-28T10:49:21.976Z,55.80
2017-04-28T10:51:49.907Z,54.50
2017-04-28T10:54:17.456Z,54.50
2017-04-28T10:56:45.417Z,56.10
2017-04-28T10:59:13.388Z,55.40
2017-04-28T11:01:40.904Z,55.40
2017-04-28T11:04:08.859Z,54.40
2017-04-28T11:06:36.797Z,58.30
2017-04-28T11:09:04.728Z,53.00
2017-04-28T11:11:32.695Z,52.80
2017-04-28T11:14:00.632Z,53.80
2017-04-28T11:16:28.577Z,51.60
2017-04-28T11:18:56.543Z,54.00
2017-04-28T11:21:24.472Z,55.60
2017-04-28T11:23:52.407Z,57.10
2017-04-28T11:26:20.393Z,59.10
2017-04-28T11:28:48.328Z,60.40
2017-04-28T11:31:15.872Z,60.40
2017-04-28T11:33:43.859Z,61.00
2017-04-28T11:36:11.800Z,59.00
2017-04-28T11:38:40.103Z,56.50
2017-04-28T11:41:08.080Z,58.10
2017-04-28T11:43:36.017Z,59.60
2017-04-28T11:46:04.325Z,59.20
2017-04-28T11:48:32.285Z,60.60
2017-04-28T11:50:59.828Z,60.60
2017-04-28T11:53:28.134Z,58.20
2017-04-28T11:55:56.097Z,60.70
2017-04-28T11:58:23.628Z,60.70
2017-04-28T12:00:51.936Z,62.10
2017-04-28T12:03:19.907Z,58.30
2017-04-28T12:05:47.839Z,58.90
2017-04-28T12:08:15.385Z,58.90
2017-04-28T12:10:43.340Z,54.20
2017-04-28T12:13:11.271Z,55.50
2017-04-28T12:15:39.211Z,57.10
2017-04-28T12:18:07.175Z,57.80
2017-04-28T12:20:35.120Z,55.70
2017-04-28T12:23:03.056Z,55.60
2017-04-28T12:25:31.025Z,53.50
2017-04-28T12:27:58.964Z,56.90
2017-04-28T12:30:26.905Z,61.10
2017-04-28T12:32:54.476Z,61.10
2017-04-28T12:35:22.408Z,59.30
2017-04-28T12:37:50.349Z,54.30
2017-04-28T12:40:18.688Z,59.10
2017-04-28T12:42:46.625Z,56.30
2017-04-28T12:45:14.651Z,58.40
2017-04-28T12:47:42.597Z,55.40
2017-04-28T12:50:10.532Z,53.50
2017-04-28T12:52:38.479Z,53.10
2017-04-28T12:55:06.808Z,51.00
2017-04-28T12:57:34.741Z,52.90
2017-04-28T13:00:02.682Z,48.50
2017-04-28T13:02:30.636Z,50.30
2017-04-28T13:04:58.596Z,48.90
2017-04-28T13:07:26.532Z,50.70
2017-04-28T13:09:54.505Z,48.90
2017-04-28T13:12:22.443Z,51.40
2017-04-28T13:14:50.014Z,51.40
2017-04-28T13:17:17.972Z,45.10
2017-04-28T13:19:45.521Z,45.10
2017-04-28T13:22:13.470Z,48.00
2017-04-28T13:24:41.435Z,50.50
2017-04-28T13:27:09.372Z,48.00
2017-04-28T13:29:37.321Z,49.10
2017-04-28T13:32:05.657Z,48.70
2017-04-28T13:34:33.582Z,50.60
2017-04-28T13:37:01.135Z,50.60
2017-04-28T13:39:29.092Z,49.60
2017-04-28T13:41:57.407Z,51.40
2017-04-28T13:44:25.348Z,48.70
2017-04-28T13:46:52.926Z,48.70
2017-04-28T13:49:20.860Z,48.20
2017-04-28T13:51:49.168Z,49.30
2017-04-28T13:54:16.744Z,49.30
2017-04-28T13:56:44.711Z,50.50
2017-04-28T13:59:12.645Z,48.90
2017-04-28T14:01:40.980Z,48.10
2017-04-28T14:04:08.922Z,48.80
2017-04-28T14:06:36.861Z,47.70
2017-04-28T14:09:04.824Z,48.80
2017-04-28T14:11:32.759Z,45.30
2017-04-28T14:14:00.703Z,46.00
2017-04-28T14:16:28.675Z,45.90
2017-04-28T14:18:56.612Z,49.10
2017-04-28T14:21:24.156Z,49.10
2017-04-28T14:23:52.115Z,44.70
2017-04-28T14:26:20.057Z,45.10
2017-04-28T14:28:48.004Z,45.40
2017-04-28T14:31:15.965Z,46.60
2017-04-28T14:33:43.503Z,46.60
2017-04-28T14:36:11.073Z,49.10
2017-04-28T14:38:39.023Z,47.60
2017-04-28T14:41:06.946Z,45.60
2017-04-28T14:43:34.512Z,45.60
2017-04-28T14:46:02.480Z,46.70
2017-04-28T14:48:30.023Z,46.70
2017-04-28T14:50:57.960Z,48.70
2017-04-28T14:53:25.925Z,48.50
2017-04-28T14:55:53.869Z,48.70
2017-04-28T14:58:21.812Z,49.90
2017-04-28T15:00:49.772Z,50.80
2017-04-28T15:03:18.076Z,48.60
2017-04-28T15:05:46.020Z,48.50
2017-04-28T15:08:13.620Z,48.50
2017-04-28T15:10:41.552Z,50.30
2017-04-28T15:13:09.861Z,50.20
2017-04-28T15:15:37.436Z,50.20
2017-04-28T15:18:05.376Z,48.50
2017-04-28T15:20:33.307Z,49.80
2017-04-28T15:23:01.367Z,46.40
2017-04-28T15:25:29.298Z,45.80
2017-04-28T15:27:57.242Z,43.90
2017-04-28T15:30:24.809Z,43.90
2017-04-28T15:32:52.748Z,48.90
2017-04-28T15:35:20.684Z,50.60
2017-04-28T15:37:48.646Z,52.40
2017-04-28T15:40:16.245Z,52.50
2017-04-28T15:42:43.796Z,52.80
2017-04-28T15:45:11.359Z,54.60
2017-04-28T15:47:39.297Z,53.30
2017-04-28T15:50:06.845Z,53.30
2017-04-28T15:52:34.795Z,53.30
2017-04-28T15:55:02.747Z,55.00
2017-04-28T15:57:30.292Z,54.90
2017-04-28T15:59:58.269Z,52.90
2017-04-28T16:02:25.808Z,52.80
2017-04-28T16:04:53.781Z,53.20
2017-04-28T16:07:21.720Z,52.20
2017-04-28T16:09:49.677Z,52.00
2017-04-28T16:12:17.641Z,53.20
2017-04-28T16:14:45.577Z,56.20
2017-04-28T16:17:13.538Z,51.80
2017-04-28T16:19:41.481Z,53.80
2017-04-28T16:22:09.031Z,53.80
2017-04-28T16:24:36.997Z,53.40
2017-04-28T16:27:04.957Z,51.10
2017-04-28T16:29:32.908Z,52.80
2017-04-28T16:32:01.264Z,51.80
2017-04-28T16:34:29.221Z,53.10
2017-04-28T16:36:57.157Z,52.90
2017-04-28T16:39:25.142Z,54.60
2017-04-28T16:41:52.679Z,54.60
2017-04-28T16:44:20.223Z,53.10
2017-04-28T16:46:48.560Z,55.30
2017-04-28T16:49:16.491Z,55.40
2017-04-28T16:51:44.425Z,55.30
2017-04-28T16:54:12.404Z,54.40
2017-04-28T16:56:39.947Z,54.40
2017-04-28T16:59:07.896Z,58.80
2017-04-28T17:01:35.875Z,58.70
2017-04-28T17:04:03.820Z,60.50
2017-04-28T17:06:31.759Z,59.70
2017-04-28T17:08:59.738Z,59.20
2017-04-28T17:11:27.681Z,59.10
2017-04-28T17:13:55.665Z,60.60
2017-04-28T17:16:24.008Z,60.10
2017-04-28T17:18:51.565Z,60.10
2017-04-28T17:21:19.492Z,58.50
2017-04-28T17:23:47.468Z,58.10
2017-04-28T17:26:15.397Z,53.20
2017-04-28T17:28:43.350Z,53.80
2017-04-28T17:31:11.308Z,54.10
2017-04-28T17:33:39.256Z,54.70
2017-04-28T17:36:06.804Z,54.70
2017-04-28T17:38:34.936Z,54.10
2017-04-28T17:41:02.915Z,55.30
2017-04-28T17:43:31.391Z,56.60
2017-04-28T17:45:59.417Z,55.70
2017-04-28T17:48:27.663Z,54.50
2017-04-28T17:50:55.918Z,54.70
2017-04-28T17:53:23.633Z,54.70
2017-04-28T17:55:51.826Z,56.40
2017-04-28T17:58:19.943Z,54.30
2017-04-28T18:00:48.516Z,56.90
2017-04-28T18:03:16.669Z,57.10
2017-04-28T18:05:44.280Z,57.10
2017-04-28T18:08:12.745Z,56.00
2017-04-28T18:10:40.336Z,56.00
2017-04-28T18:13:08.519Z,57.30
2017-04-28T18:15:36.703Z,58.10
2017-04-28T18:18:04.934Z,58.20
2017-04-28T18:20:33.334Z,59.70
2017-04-28T18:23:01.198Z,59.70
2017-04-28T18:25:29.680Z,58.50
2017-04-28T18:27:58.254Z,58.60
2017-04-28T18:30:26.116Z,58.60
2017-04-28T18:32:54.488Z,61.60
2017-04-28T18:35:23.030Z,61.80
2017-04-28T18:37:51.710Z,62.20
2017-04-28T18:40:20.011Z,62.20
2017-04-28T18:42:49.328Z,61.70
2017-04-28T18:45:18.239Z,63.20
2017-04-28T18:47:47.147Z,63.10
2017-04-28T18:50:16.212Z,63.50
2017-04-28T18:52:45.082Z,64.30
2017-04-28T18:55:13.964Z,62.20
2017-04-28T18:57:43.506Z,63.40
2017-04-28T19:00:12.519Z,63.10
2017-04-28T19:02:41.431Z,63.20
2017-04-28T19:05:10.863Z,63.50
2017-04-28T19:07:39.839Z,64.90
2017-04-28T19:10:08.421Z,64.90
2017-04-28T19:12:37.834Z,65.70
2017-04-28T19:15:06.499Z,65.70
2017-04-28T19:17:36.163Z,64.50
2017-04-28T19:20:05.408Z,65.90
2017-04-28T19:22:34.398Z,64.90
2017-04-28T19:25:03.512Z,64.50
2017-04-28T19:27:32.823Z,65.30
2017-04-28T19:30:02.139Z,66.10
2017-04-28T19:32:31.229Z,65.90
2017-04-28T19:35:00.225Z,67.60
2017-04-28T19:37:29.186Z,67.70
2017-04-28T19:39:58.240Z,67.10
2017-04-28T19:42:27.248Z,67.70
2017-04-28T19:44:56.215Z,67.50
2017-04-28T19:47:25.998Z,67.50
2017-04-28T19:49:54.588Z,67.40
2017-04-28T19:52:23.131Z,68.10
2017-04-28T19:54:52.884Z,67.40
2017-04-28T19:57:21.903Z,68.20
2017-04-28T19:59:50.883Z,68.90
2017-04-28T20:02:19.712Z,68.80
2017-04-28T20:04:48.689Z,69.90
2017-04-28T20:07:18.587Z,69.90
2017-04-28T20:09:48.599Z,68.90
2017-04-28T20:12:17.589Z,70.00
2017-04-28T20:14:46.933Z,70.10
2017-04-28T20:17:15.991Z,70.80
2017-04-28T20:19:44.551Z,70.70
2017-04-28T20:22:13.482Z,70.60
2017-04-28T20:24:42.316Z,70.60
2017-04-28T20:27:11.432Z,72.10
2017-04-28T20:29:40.402Z,71.60
2017-04-28T20:32:09.633Z,71.80
2017-04-28T20:34:38.476Z,71.80
2017-04-28T20:37:07.453Z,71.40
2017-04-28T20:39:36.071Z,71.40
2017-04-28T20:42:05.071Z,72.20
2017-04-28T20:44:34.090Z,73.00
2017-04-28T20:47:03.530Z,73.40
2017-04-28T20:49:32.108Z,73.50
2017-04-28T20:52:01.168Z,73.80
2017-04-28T20:54:29.791Z,73.80
2017-04-28T20:56:58.812Z,73.50
2017-04-28T20:59:27.779Z,73.70
2017-04-28T21:01:56.834Z,73.60
2017-04-28T21:04:26.481Z,73.90
2017-04-28T21:06:55.141Z,74.30
2017-04-28T21:09:24.000Z,75.50
2017-04-28T21:11:52.874Z,75.60
2017-04-28T21:14:21.106Z,75.60
2017-04-28T21:16:49.429Z,75.90
2017-04-28T21:19:18.076Z,77.00
2017-04-28T21:21:46.960Z,75.50
2017-04-28T21:24:15.679Z,75.50
2017-04-28T21:26:44.609Z,74.00
2017-04-28T21:29:13.054Z,73.10
2017-04-28T21:31:41.172Z,73.10
2017-04-28T21:34:10.132Z,72.00
2017-04-28T21:36:38.842Z,71.70
2017-04-28T21:39:07.340Z,71.50
2017-04-28T21:41:35.552Z,72.00
2017-04-28T21:44:03.768Z,72.00
2017-04-28T21:46:32.249Z,72.00
2017-04-28T21:48:59.813Z,72.00
2017-04-28T21:51:27.804Z,72.90
2017-04-28T21:53:55.751Z,71.60
2017-04-28T21:56:23.684Z,71.20
2017-04-28T21:58:51.652Z,72.20
2017-04-28T22:01:19.196Z,72.20
2017-04-28T22:03:47.159Z,70.30
2017-04-28T22:06:15.464Z,70.40
2017-04-28T22:08:43.405Z,70.00
2017-04-28T22:11:11.761Z,70.70
2017-04-28T22:13:39.687Z,71.20
2017-04-28T22:16:13.263Z,70.70
2017-04-28T22:18:41.569Z,70.80
2017-04-28T22:21:09.505Z,70.30
2017-04-28T22:23:37.832Z,70.70
2017-04-28T22:26:05.775Z,70.70
2017-04-28T22:28:33.708Z,71.20
2017-04-28T22:31:02.045Z,70.90
2017-04-28T22:33:29.981Z,72.10
2017-04-28T22:35:57.934Z,72.90
2017-04-28T22:38:26.260Z,73.60
2017-04-28T22:40:54.193Z,73.30
2017-04-28T22:43:22.492Z,75.60
2017-04-28T22:45:50.457Z,74.30
2017-04-28T22:48:18.396Z,73.10
2017-04-28T22:50:45.941Z,73.10
2017-04-28T22:53:13.512Z,71.90
2017-04-28T22:55:41.449Z,72.30
2017-04-28T22:58:09.389Z,72.30
2017-04-28T23:00:37.346Z,72.70
2017-04-28T23:03:05.276Z,74.70
2017-04-28T23:05:33.216Z,72.40
2017-04-28T23:08:00.772Z,72.40
2017-04-28T23:10:28.704Z,73.90
2017-04-28T23:12:57.009Z,73.50
2017-04-28T23:15:24.968Z,73.10
2017-04-28T23:17:52.908Z,72.60
2017-04-28T23:20:20.848Z,73.30
2017-04-28T23:22:48.800Z,73.60
2017-04-28T23:25:16.744Z,73.60
2017-04-28T23:27:44.673Z,73.40
2017-04-28T23:30:12.632Z,74.10
2017-04-28T23:32:40.568Z,73.70
2017-04-28T23:35:08.116Z,73.60
2017-04-28T23:37:36.085Z,74.30
2017-04-28T23:40:03.600Z,74.30
2017-04-28T23:42:31.564Z,73.90
2017-04-28T23:44:59.529Z,74.00
2017-04-28T23:47:27.476Z,73.90
2017-04-28T23:49:55.423Z,73.60
2017-04-28T23:52:23.753Z,75.00
2017-04-28T23:54:51.688Z,75.40
2017-04-28T23:57:19.646Z,74.40
2017-04-28T23:59:47.599Z,74.10
